6.500 kWh

EHAM AMSTERDAM/SCHIPHOL NLD -3 m.
METAR EHAM 222225Z 22003KT 9999 FEW018 FEW022CB BKN029 17/16 Q1011
TEMPO 5000 SHRA

EHAM AMSTERDAM/SCHIPHOL NLD -3 m.
TAF EHAM 221709Z 2218/2324 VRB03KT 9999 SCT030
TEMPO 2218/2224 6000 SHRA SCT030CB
PROB30 TEMPO 2218/2222 20012G22KT 4000 TSRA SCT025CB
PROB30 2223/2305 4000 BR MIFG NSC
BECMG 2305/2308 21012KT
TEMPO 2307/2317 6000 SHRA SCT025CB
PROB30 TEMPO 2307/2317 23014G24KT 4000 TSRA SCT020CB
BECMG 2312/2315 25012KT
PROB30 TEMPO 2317/2324 6000 SHRA SCT030CB
BECMG 2319/2322 20008KT